createdAt,value
2024-02-24T00:00:17.120Z,11.57
2024-02-24T00:03:21.373Z,11.54
2024-02-24T00:06:25.117Z,11.56
2024-02-24T00:09:28.837Z,11.63
2024-02-24T00:12:31.136Z,11.61
2024-02-24T00:15:33.835Z,11.61
2024-02-24T00:18:36.361Z,11.64
2024-02-24T00:21:39.006Z,11.66
2024-02-24T00:24:41.413Z,11.69
2024-02-24T00:27:44.100Z,11.63
2024-02-24T00:30:46.653Z,11.69
2024-02-24T00:33:49.424Z,11.69
2024-02-24T00:36:51.763Z,11.72
2024-02-24T00:39:54.473Z,11.60
2024-02-24T00:42:56.833Z,11.67
2024-02-24T00:46:00.151Z,11.67
2024-02-24T00:49:02.768Z,11.72
2024-02-24T00:52:05.685Z,11.71
2024-02-24T00:55:08.713Z,11.75
2024-02-24T00:58:12.217Z,11.69
2024-02-24T01:01:14.683Z,11.55
2024-02-24T01:04:21.384Z,11.47
2024-02-24T01:07:25.716Z,11.45
2024-02-24T01:10:30.015Z,11.42
2024-02-24T01:13:32.497Z,11.37
2024-02-24T01:16:35.316Z,11.40
2024-02-24T01:19:38.184Z,11.41
2024-02-24T01:22:40.971Z,11.44
2024-02-24T01:25:45.424Z,11.42
2024-02-24T01:28:49.354Z,11.54
2024-02-24T01:31:51.668Z,11.66
2024-02-24T01:34:54.458Z,11.68
2024-02-24T01:37:56.951Z,11.72
2024-02-24T01:40:59.561Z,11.72
2024-02-24T01:44:01.961Z,11.70
2024-02-24T01:47:04.784Z,11.69
2024-02-24T01:50:08.323Z,11.67
2024-02-24T01:53:11.585Z,11.68
2024-02-24T01:56:14.763Z,11.72
2024-02-24T01:59:18.476Z,11.75
2024-02-24T02:02:20.977Z,11.75
2024-02-24T02:05:23.787Z,11.77
2024-02-24T02:08:26.258Z,11.69
2024-02-24T02:11:29.081Z,11.69
2024-02-24T02:14:31.585Z,11.68
2024-02-24T02:17:34.576Z,11.68
2024-02-24T02:20:37.265Z,11.63
2024-02-24T02:23:40.009Z,11.70
2024-02-24T02:26:42.498Z,11.74
2024-02-24T02:29:45.552Z,11.71
2024-02-24T02:32:48.074Z,11.75
2024-02-24T02:35:51.746Z,11.77
2024-02-24T02:38:54.118Z,11.71
2024-02-24T02:41:56.840Z,11.73
2024-02-24T02:44:59.212Z,11.71
2024-02-24T02:48:02.083Z,11.65
2024-02-24T02:51:04.898Z,11.59
2024-02-24T02:54:07.564Z,11.51
2024-02-24T02:57:09.958Z,11.36
2024-02-24T03:00:13.241Z,11.30
2024-02-24T03:03:15.877Z,11.25
2024-02-24T03:06:19.648Z,11.17
2024-02-24T03:09:22.053Z,11.29
2024-02-24T03:12:24.925Z,11.19
2024-02-24T03:15:27.403Z,11.12
2024-02-24T03:18:30.139Z,11.17
2024-02-24T03:21:33.671Z,11.24
2024-02-24T03:24:36.457Z,11.27
2024-02-24T03:27:39.070Z,11.29
2024-02-24T03:30:41.806Z,11.37
2024-02-24T03:33:44.628Z,11.31
2024-02-24T03:36:47.351Z,11.34
2024-02-24T03:39:49.816Z,11.24
2024-02-24T03:42:52.795Z,11.31
2024-02-24T03:45:55.133Z,11.06
2024-02-24T03:48:57.762Z,10.93
2024-02-24T03:52:00.125Z,10.76
2024-02-24T03:55:02.772Z,10.69
2024-02-24T03:58:05.094Z,10.63
2024-02-24T04:01:07.704Z,10.48
2024-02-24T04:04:10.419Z,10.38
2024-02-24T04:07:13.591Z,10.35
2024-02-24T04:10:16.326Z,10.26
2024-02-24T04:13:21.228Z,10.30
2024-02-24T04:16:24.196Z,10.27
2024-02-24T04:19:26.658Z,10.32
2024-02-24T04:22:29.443Z,10.33
2024-02-24T04:25:31.735Z,10.37
2024-02-24T04:28:34.404Z,10.34
2024-02-24T04:31:36.875Z,10.25
2024-02-24T04:34:39.583Z,10.31
2024-02-24T04:37:42.226Z,10.20
2024-02-24T04:40:44.847Z,10.17
2024-02-24T04:43:47.192Z,10.16
2024-02-24T04:46:50.185Z,10.21
2024-02-24T04:49:53.120Z,10.23
2024-02-24T04:52:56.286Z,10.25
2024-02-24T04:55:58.583Z,10.25
2024-02-24T04:59:01.345Z,10.29
2024-02-24T05:02:03.832Z,10.30
2024-02-24T05:05:07.063Z,10.33
2024-02-24T05:08:09.958Z,10.29
2024-02-24T05:11:12.653Z,10.22
2024-02-24T05:14:18.528Z,10.25
2024-02-24T05:17:23.750Z,10.16
2024-02-24T05:20:26.207Z,10.09
2024-02-24T05:23:29.333Z,10.07
2024-02-24T05:26:31.728Z,10.01
2024-02-24T05:29:35.120Z,10.00
2024-02-24T05:32:37.598Z,9.98
2024-02-24T05:35:40.432Z,9.97
2024-02-24T05:38:43.467Z,9.94
2024-02-24T05:41:47.999Z,9.97
2024-02-24T05:44:50.892Z,9.99
2024-02-24T05:47:53.697Z,9.92
2024-02-24T05:50:56.382Z,9.92
2024-02-24T05:53:59.901Z,9.92
2024-02-24T05:57:05.789Z,9.92
2024-02-24T06:00:12.289Z,9.93
2024-02-24T06:03:15.301Z,9.96
2024-02-24T06:06:17.943Z,9.88
2024-02-24T06:09:20.672Z,9.87
2024-02-24T06:12:25.671Z,9.88
2024-02-24T06:15:29.024Z,9.90
2024-02-24T06:18:31.830Z,9.85
2024-02-24T06:21:34.843Z,9.92
2024-02-24T06:24:37.221Z,9.81
2024-02-24T06:27:40.249Z,9.83
2024-02-24T06:30:42.952Z,9.89
2024-02-24T06:33:45.772Z,9.91
2024-02-24T06:36:48.296Z,9.90
2024-02-24T06:39:51.280Z,9.83
2024-02-24T06:42:53.705Z,9.99
2024-02-24T06:45:56.353Z,10.05
2024-02-24T06:48:59.363Z,10.10
2024-02-24T06:52:04.574Z,10.08
2024-02-24T06:55:07.350Z,10.10
2024-02-24T06:58:10.078Z,10.11
2024-02-24T07:01:12.625Z,10.18
2024-02-24T07:04:18.219Z,10.19
2024-02-24T07:07:20.930Z,10.13
2024-02-24T07:10:23.567Z,10.13
2024-02-24T07:13:25.891Z,10.25
2024-02-24T07:16:29.064Z,10.29
2024-02-24T07:19:31.438Z,10.37
2024-02-24T07:22:34.012Z,10.49
2024-02-24T07:25:36.464Z,10.55
2024-02-24T07:28:41.226Z,10.68
2024-02-24T07:31:43.754Z,10.79
2024-02-24T07:34:46.823Z,10.73
2024-02-24T07:37:50.245Z,10.81
2024-02-24T07:40:53.144Z,10.87
2024-02-24T07:43:55.623Z,10.90
2024-02-24T07:46:58.212Z,10.97
2024-02-24T07:50:00.702Z,10.94
2024-02-24T07:53:04.803Z,11.09
2024-02-24T07:56:07.376Z,11.14
2024-02-24T07:59:10.228Z,11.24
2024-02-24T08:02:12.663Z,11.34
2024-02-24T08:05:15.420Z,11.41
2024-02-24T08:08:17.885Z,11.53
2024-02-24T08:11:20.714Z,11.54
2024-02-24T08:14:23.176Z,11.60
2024-02-24T08:17:25.930Z,11.98
2024-02-24T08:20:28.712Z,12.47
2024-02-24T08:23:31.343Z,12.88
2024-02-24T08:26:36.159Z,13.28
2024-02-24T08:29:38.982Z,13.45
2024-02-24T08:32:41.358Z,13.16
2024-02-24T08:35:44.810Z,12.76
2024-02-24T08:38:47.446Z,12.88
2024-02-24T08:41:50.255Z,12.96
2024-02-24T08:44:52.773Z,13.00
2024-02-24T08:47:55.511Z,13.24
2024-02-24T08:50:58.049Z,13.41
2024-02-24T08:54:00.824Z,13.68
2024-02-24T08:57:03.530Z,13.73
2024-02-24T09:00:06.960Z,13.71
2024-02-24T09:03:09.496Z,13.40
2024-02-24T09:06:12.531Z,13.36
2024-02-24T09:09:17.189Z,13.28
2024-02-24T09:12:19.918Z,13.45
2024-02-24T09:15:22.279Z,13.55
2024-02-24T09:18:26.947Z,13.40
2024-02-24T09:21:29.766Z,13.02
2024-02-24T09:24:32.428Z,13.32
2024-02-24T09:27:34.854Z,13.04
2024-02-24T09:30:38.003Z,13.32
2024-02-24T09:33:40.557Z,13.07
2024-02-24T09:36:43.796Z,13.34
2024-02-24T09:39:46.499Z,13.28
2024-02-24T09:42:49.222Z,13.26
2024-02-24T09:45:52.568Z,13.44
2024-02-24T09:48:56.241Z,13.60
2024-02-24T09:51:59.879Z,13.49
2024-02-24T09:55:04.470Z,13.42
2024-02-24T09:58:12.273Z,13.43
2024-02-24T10:01:15.021Z,13.26
2024-02-24T10:04:19.005Z,13.72
2024-02-24T10:09:05.973Z,13.19
2024-02-24T10:12:09.380Z,13.30
2024-02-24T10:15:15.452Z,12.97
2024-02-24T10:18:21.525Z,13.31
2024-02-24T10:21:24.589Z,13.33
2024-02-24T10:24:27.300Z,13.28
2024-02-24T10:27:30.921Z,13.40
2024-02-24T10:30:33.603Z,13.13
2024-02-24T10:33:38.628Z,13.41
2024-02-24T10:36:42.725Z,13.54
2024-02-24T10:39:47.003Z,13.50
2024-02-24T10:42:50.750Z,13.72
2024-02-24T10:45:53.021Z,13.45
2024-02-24T10:48:56.016Z,13.66
2024-02-24T10:51:59.096Z,13.73
2024-02-24T10:55:03.528Z,13.80
2024-02-24T10:58:06.556Z,13.82
2024-02-24T11:01:11.070Z,14.07
2024-02-24T11:04:16.784Z,13.80
2024-02-24T11:07:24.129Z,13.82
2024-02-24T11:10:33.597Z,13.64
2024-02-24T11:13:36.576Z,13.84
2024-02-24T11:16:40.290Z,13.71
2024-02-24T11:19:49.417Z,13.51
2024-02-24T11:23:35.003Z,13.60
2024-02-24T11:26:38.896Z,13.86
2024-02-24T11:29:41.606Z,13.53
2024-02-24T11:32:47.304Z,13.73
2024-02-24T11:35:54.990Z,13.65
2024-02-24T11:38:59.041Z,13.90
2024-02-24T11:42:05.825Z,13.78
2024-02-24T11:45:09.638Z,13.48
2024-02-24T11:48:12.191Z,13.69
2024-02-24T11:51:15.176Z,13.68
2024-02-24T11:54:18.192Z,13.77
2024-02-24T11:57:21.446Z,13.60
2024-02-24T12:00:24.082Z,13.73
2024-02-24T12:03:26.679Z,13.80
2024-02-24T12:06:32.011Z,13.81
2024-02-24T12:09:34.983Z,13.69
2024-02-24T12:12:38.004Z,13.55
2024-02-24T12:15:42.457Z,13.68
2024-02-24T12:18:47.134Z,13.53
2024-02-24T12:21:50.286Z,13.57
2024-02-24T12:24:52.679Z,13.68
2024-02-24T12:27:56.827Z,13.59
2024-02-24T12:30:59.244Z,13.65
2024-02-24T12:34:02.230Z,13.61
2024-02-24T12:37:04.892Z,13.55
2024-02-24T12:40:08.747Z,13.59
2024-02-24T12:43:12.230Z,13.72
2024-02-24T12:46:15.729Z,13.88
2024-02-24T12:49:18.336Z,13.84
2024-02-24T12:52:21.414Z,13.62
2024-02-24T12:55:23.908Z,13.77
2024-02-24T12:58:27.275Z,13.77
2024-02-24T13:01:29.692Z,13.86
2024-02-24T13:04:32.811Z,13.77
2024-02-24T13:07:35.414Z,13.76
2024-02-24T13:10:38.194Z,13.64
2024-02-24T13:13:40.688Z,13.74
2024-02-24T13:16:43.350Z,13.78
2024-02-24T13:19:45.679Z,13.77
2024-02-24T13:22:48.832Z,13.86
2024-02-24T13:25:51.224Z,13.68
2024-02-24T13:28:55.958Z,13.62
2024-02-24T13:31:58.930Z,13.67
2024-02-24T13:35:01.719Z,13.66
2024-02-24T13:38:04.277Z,13.60
2024-02-24T13:41:07.081Z,13.68
2024-02-24T13:44:13.716Z,13.73
2024-02-24T13:47:17.367Z,13.71
2024-02-24T13:50:21.266Z,13.70
2024-02-24T13:53:24.039Z,13.80
2024-02-24T13:56:26.967Z,13.74
2024-02-24T13:59:29.656Z,13.81
2024-02-24T14:02:32.081Z,13.79
2024-02-24T14:05:35.085Z,13.83
2024-02-24T14:08:37.954Z,13.74
2024-02-24T14:11:41.037Z,13.74
2024-02-24T14:14:43.668Z,13.84
2024-02-24T14:17:46.639Z,13.82
2024-02-24T14:20:49.376Z,13.86
2024-02-24T14:23:52.945Z,13.79
2024-02-24T14:26:56.040Z,13.84
2024-02-24T14:30:00.667Z,13.84
2024-02-24T14:33:03.205Z,13.87
2024-02-24T14:36:06.231Z,13.82
2024-02-24T14:39:10.838Z,13.82
2024-02-24T14:42:13.764Z,13.80
2024-02-24T14:45:16.220Z,13.88
2024-02-24T14:48:18.976Z,13.72
2024-02-24T14:51:21.641Z,13.70
2024-02-24T14:54:24.814Z,13.80
2024-02-24T14:57:27.265Z,13.65
2024-02-24T15:00:29.965Z,13.68
2024-02-24T15:03:37.777Z,13.67
2024-02-24T15:06:45.533Z,13.62
2024-02-24T15:09:50.103Z,13.66
2024-02-24T15:12:52.895Z,13.48
2024-02-24T15:15:55.288Z,13.52
2024-02-24T15:18:58.126Z,13.57
2024-02-24T15:22:00.658Z,13.48
2024-02-24T15:25:03.677Z,13.50
2024-02-24T15:28:06.759Z,13.39
2024-02-24T15:31:09.640Z,13.44
2024-02-24T15:34:12.109Z,13.36
2024-02-24T15:37:14.736Z,13.36
2024-02-24T15:40:17.973Z,13.41
2024-02-24T15:43:22.066Z,13.35
2024-02-24T15:46:27.659Z,13.31
2024-02-24T15:49:30.823Z,13.32
2024-02-24T15:52:33.216Z,13.23
2024-02-24T15:55:35.891Z,13.16
2024-02-24T15:58:38.584Z,13.14
2024-02-24T16:01:41.817Z,13.07
2024-02-24T16:04:45.529Z,13.06
2024-02-24T16:07:47.930Z,13.01
2024-02-24T16:10:52.356Z,12.96
2024-02-24T16:13:56.583Z,12.93
2024-02-24T16:17:02.291Z,12.84
2024-02-24T16:20:05.116Z,12.86
2024-02-24T16:23:08.488Z,12.80
2024-02-24T16:26:14.973Z,12.80
2024-02-24T16:29:17.683Z,12.73
2024-02-24T16:32:20.301Z,12.68
2024-02-24T16:35:23.131Z,12.68
2024-02-24T16:38:25.576Z,12.62
2024-02-24T16:41:32.806Z,12.60
2024-02-24T16:44:35.927Z,12.56
2024-02-24T16:47:39.692Z,12.47
2024-02-24T16:50:42.388Z,12.45
2024-02-24T16:53:45.420Z,12.46
2024-02-24T16:56:48.223Z,12.42
2024-02-24T16:59:52.152Z,12.42
2024-02-24T17:02:56.605Z,12.37
2024-02-24T17:05:59.820Z,12.37
2024-02-24T17:09:03.967Z,12.32
2024-02-24T17:12:07.423Z,12.34
2024-02-24T17:15:11.683Z,12.32
2024-02-24T17:18:18.668Z,12.27
2024-02-24T17:21:28.674Z,12.29
2024-02-24T17:27:35.976Z,12.16
2024-02-24T17:30:38.603Z,12.23
2024-02-24T17:33:44.200Z,12.21
2024-02-24T17:36:49.851Z,12.26
2024-02-24T17:39:54.283Z,12.28
2024-02-24T17:42:57.766Z,12.15
2024-02-24T17:46:00.744Z,12.20
2024-02-24T17:52:09.081Z,12.05
2024-02-24T17:55:13.325Z,12.00
2024-02-24T17:58:16.267Z,11.99
2024-02-24T18:01:22.026Z,12.03
2024-02-24T18:04:24.814Z,11.98
2024-02-24T18:07:28.078Z,11.91
2024-02-24T18:10:31.083Z,11.93
2024-02-24T18:13:33.533Z,11.91
2024-02-24T18:16:36.272Z,11.83
2024-02-24T18:19:38.793Z,11.73
2024-02-24T18:22:44.869Z,11.74
2024-02-24T18:25:47.868Z,11.67
2024-02-24T18:28:50.675Z,11.68
2024-02-24T18:31:53.244Z,11.68
2024-02-24T18:34:56.967Z,11.70
2024-02-24T18:38:00.928Z,11.58
2024-02-24T18:41:03.949Z,11.54
2024-02-24T18:44:06.634Z,11.44
2024-02-24T18:47:10.871Z,11.40
2024-02-24T18:50:13.639Z,11.39
2024-02-24T18:53:16.665Z,11.33
2024-02-24T18:56:19.454Z,11.36
2024-02-24T18:59:22.704Z,11.25
2024-02-24T19:02:25.745Z,11.28
2024-02-24T19:05:31.882Z,11.20
2024-02-24T19:08:34.744Z,11.15
2024-02-24T19:11:37.607Z,11.13
2024-02-24T19:14:48.767Z,11.08
2024-02-24T19:17:57.533Z,11.11
2024-02-24T19:21:00.189Z,11.00
2024-02-24T19:24:03.074Z,10.98
2024-02-24T19:27:05.928Z,10.92
2024-02-24T19:30:09.867Z,10.89
2024-02-24T19:33:12.439Z,10.86
2024-02-24T19:36:15.178Z,10.81
2024-02-24T19:39:19.406Z,10.80
2024-02-24T19:42:22.440Z,10.82
2024-02-24T19:45:24.983Z,10.75
2024-02-24T19:48:27.653Z,10.69
2024-02-24T19:51:30.496Z,10.75
2024-02-24T19:54:33.169Z,10.73
2024-02-24T19:57:36.174Z,10.66
2024-02-24T20:00:39.446Z,10.63
2024-02-24T20:03:41.926Z,10.58
2024-02-24T20:06:44.561Z,10.51
2024-02-24T20:09:47.018Z,10.56
2024-02-24T20:12:49.321Z,10.54
2024-02-24T20:15:51.907Z,10.48
2024-02-24T20:18:54.394Z,10.43
2024-02-24T20:21:57.113Z,10.37
2024-02-24T20:24:59.643Z,10.39
2024-02-24T20:28:04.730Z,10.37
2024-02-24T20:31:07.103Z,10.38
2024-02-24T20:34:09.946Z,10.28
2024-02-24T20:37:12.476Z,10.26
2024-02-24T20:40:15.161Z,10.16
2024-02-24T20:43:17.368Z,10.14
2024-02-24T20:46:22.602Z,10.23
2024-02-24T20:49:25.968Z,10.15
2024-02-24T20:52:29.909Z,10.01
2024-02-24T20:55:32.659Z,10.08
2024-02-24T20:58:37.311Z,9.97
2024-02-24T21:01:39.932Z,9.96
2024-02-24T21:04:42.874Z,9.89
2024-02-24T21:07:45.536Z,9.95
2024-02-24T21:10:47.886Z,9.97
2024-02-24T21:13:50.191Z,9.92
2024-02-24T21:16:52.534Z,9.93
2024-02-24T21:19:55.070Z,9.95
2024-02-24T21:22:57.475Z,9.91
2024-02-24T21:25:59.652Z,9.91
2024-02-24T21:29:02.445Z,9.94
2024-02-24T21:32:05.181Z,9.92
2024-02-24T21:35:07.943Z,9.85
2024-02-24T21:38:10.295Z,9.88
2024-02-24T21:41:19.497Z,9.89
2024-02-24T21:44:21.986Z,9.85
2024-02-24T21:47:24.447Z,9.85
2024-02-24T21:50:26.724Z,9.85
2024-02-24T21:53:30.483Z,9.80
2024-02-24T21:56:35.115Z,9.81
2024-02-24T21:59:37.774Z,9.76
2024-02-24T22:02:40.184Z,9.72
2024-02-24T22:05:43.023Z,9.66
2024-02-24T22:08:45.369Z,9.66
2024-02-24T22:11:48.199Z,9.77
2024-02-24T22:14:50.709Z,9.70
2024-02-24T22:17:53.437Z,9.64
2024-02-24T22:20:56.512Z,9.63
2024-02-24T22:23:59.427Z,9.61
2024-02-24T22:27:02.043Z,9.58
2024-02-24T22:30:13.215Z,9.59
2024-02-24T22:33:18.998Z,9.58
2024-02-24T22:36:24.052Z,9.56
2024-02-24T22:39:27.183Z,9.53
2024-02-24T22:42:30.621Z,9.53
2024-02-24T22:45:32.925Z,9.56
2024-02-24T22:48:35.768Z,9.50
2024-02-24T22:51:38.237Z,9.53
2024-02-24T22:54:40.744Z,9.49
2024-02-24T22:57:43.242Z,9.53
2024-02-24T23:00:48.898Z,9.48
2024-02-24T23:03:51.270Z,9.54
2024-02-24T23:06:54.233Z,9.42
2024-02-24T23:09:56.662Z,9.37
2024-02-24T23:12:59.304Z,9.33
2024-02-24T23:16:01.701Z,9.21
2024-02-24T23:19:04.668Z,9.20
2024-02-24T23:22:07.709Z,9.01
2024-02-24T23:25:10.417Z,9.02
2024-02-24T23:28:15.238Z,8.87
2024-02-24T23:31:17.795Z,8.83
2024-02-24T23:34:20.271Z,8.89
2024-02-24T23:37:23.410Z,8.93
2024-02-24T23:40:25.706Z,8.77
2024-02-24T23:43:28.390Z,8.70
2024-02-24T23:46:30.817Z,8.74
2024-02-24T23:49:33.633Z,8.67
2024-02-24T23:52:35.957Z,8.71
2024-02-24T23:55:38.652Z,8.67
2024-02-24T23:58:41.043Z,8.57
